Time;durP1;ratioP1;P1;durP2;ratioP2;P2;SDS_P1;SDS_P2;PMS_P1;PMS_P2;Temp;Humidity;BMP_temperature;BMP_pressure;BME280_temperature;BME280_humidity;BME280_pressure;Samples;Min_cycle;Max_cycle;Signal;HPM_P1;HPM_P2
2022/05/17 00:00:26;;;;;;;19.83;10.70;;;;;;;11.95;100.00;163689.16;4972441;28;20027;-58
2022/05/17 00:02:52;;;;;;;18.90;9.40;;;;;;;11.89;100.00;163672.97;4991810;28;20026;-58
2022/05/17 00:05:17;;;;;;;21.70;10.35;;;;;;;11.84;100.00;163660.81;4991035;28;20038;-58
2022/05/17 00:07:43;;;;;;;18.55;10.18;;;;;;;11.73;100.00;163632.44;4992721;28;20105;-58
2022/05/17 00:10:09;;;;;;;20.55;11.70;;;;;;;11.66;100.00;163613.53;4993024;28;20034;-57
2022/05/17 00:12:35;;;;;;;16.60;9.05;;;;;;;11.62;100.00;163602.75;4974101;28;20422;-58
2022/05/17 00:15:00;;;;;;;20.92;13.07;;;;;;;11.50;100.00;163570.34;4973434;28;20033;-58
2022/05/17 00:17:26;;;;;;;24.35;13.23;;;;;;;11.43;100.00;163552.78;4971794;28;20042;-58
2022/05/17 00:19:51;;;;;;;27.02;12.80;;;;;;;11.38;100.00;163539.28;4973095;28;20058;-58
2022/05/17 00:22:17;;;;;;;29.15;13.23;;;;;;;11.37;100.00;163537.91;4985362;28;20382;-57
2022/05/17 00:24:43;;;;;;;15.50;12.55;;;;;;;11.42;100.00;163551.44;4992447;28;20034;-58
2022/05/17 00:27:08;;;;;;;23.20;14.35;;;;;;;11.54;100.00;163581.13;4991086;28;20046;-56
2022/05/17 00:29:34;;;;;;;18.63;14.45;;;;;;;11.45;100.00;163556.81;4992051;28;20026;-56
2022/05/17 00:32:00;;;;;;;19.80;12.50;;;;;;;11.62;100.00;163602.75;4979269;28;20462;-56
2022/05/17 00:34:25;;;;;;;23.88;13.55;;;;;;;11.64;100.00;163608.16;4973264;28;20054;-56
2022/05/17 00:36:51;;;;;;;22.20;14.50;;;;;;;11.65;100.00;163610.88;4971122;28;20162;-57
2022/05/17 00:39:16;;;;;;;20.90;13.57;;;;;;;11.71;100.00;163625.69;4972946;28;20023;-56
2022/05/17 00:41:41;;;;;;;19.90;13.35;;;;;;;11.70;100.00;163622.97;4979980;28;20042;-56
2022/05/17 00:47:01;;;;;;;22.92;13.60;;;;;;;11.68;100.00;163618.94;4989270;28;20056;-56
2022/05/17 00:49:32;;;;;;;17.92;13.10;;;;;;;11.68;100.00;163618.94;4972940;28;20360;-56
2022/05/17 00:52:01;;;;;;;35.50;14.57;;;;;;;11.69;100.00;163621.66;4981677;28;20049;-56
2022/05/17 00:54:28;;;;;;;38.55;15.50;;;;;;;11.70;100.00;163624.38;4992229;28;20156;-56
2022/05/17 00:57:27;;;;;;;22.13;13.55;;;;;;;11.65;100.00;163610.88;4990262;28;20062;-56
2022/05/17 00:59:55;;;;;;;27.88;15.57;;;;;;;11.56;100.00;163587.88;4991526;28;20065;-56
2022/05/17 01:02:21;;;;;;;18.10;13.93;;;;;;;11.53;100.00;163578.41;4976448;28;20039;-56
2022/05/17 01:04:47;;;;;;;29.35;15.20;;;;;;;11.52;100.00;163575.72;4972915;28;20462;-56
2022/05/17 01:07:17;;;;;;;18.45;13.40;;;;;;;11.49;100.00;163567.63;4970947;28;20101;-56
2022/05/17 01:09:42;;;;;;;19.08;12.32;;;;;;;11.40;100.00;163546.03;4972447;28;20027;-56
2022/05/17 01:12:08;;;;;;;20.20;15.50;;;;;;;11.38;100.00;163540.63;4970804;28;20070;-56
2022/05/17 01:17:17;;;;;;;16.90;11.55;;;;;;;11.32;100.00;163524.41;4990388;28;20049;-56
2022/05/17 01:19:44;;;;;;;20.52;12.38;;;;;;;11.28;100.00;163513.63;4991144;28;20022;-57
2022/05/17 01:22:10;;;;;;;16.13;12.35;;;;;;;11.21;100.00;163494.69;4990449;28;20053;-56
2022/05/17 01:24:36;;;;;;;22.08;12.93;;;;;;;11.17;100.00;163485.22;4991678;28;20015;-56
2022/05/17 01:27:09;;;;;;;16.10;12.55;;;;;;;11.13;100.00;163474.44;4989557;28;20563;-56
2022/05/17 01:29:43;;;;;;;20.70;12.25;;;;;;;11.06;100.00;163456.88;4991060;28;20034;-56
2022/05/17 01:32:10;;;;;;;13.40;10.63;;;;;;;10.99;100.00;163436.66;4990088;28;20046;-56
2022/05/17 01:34:37;;;;;;;23.13;12.65;;;;;;;10.97;100.00;163432.63;4989857;28;20426;-56
2022/05/17 01:37:04;;;;;;;24.23;14.15;;;;;;;10.82;100.00;163393.44;4974982;28;20125;-56
2022/05/17 01:39:30;;;;;;;21.02;14.15;;;;;;;10.96;100.00;163429.91;4972352;28;20047;-56
2022/05/17 01:41:55;;;;;;;19.95;14.57;;;;;;;10.97;100.00;163432.63;4970097;28;20121;-56
2022/05/17 01:44:21;;;;;;;26.95;15.52;;;;;;;10.94;100.00;163425.88;4972223;28;20019;-56
2022/05/17 01:46:46;;;;;;;24.08;16.98;;;;;;;10.97;100.00;163431.22;4970354;28;21657;-57
2022/05/17 01:49:11;;;;;;;25.23;17.45;;;;;;;10.97;100.00;163432.63;4971836;28;20029;-56
2022/05/17 01:51:37;;;;;;;31.55;19.23;;;;;;;10.81;100.00;163389.41;4987749;28;20077;-57
2022/05/17 01:54:03;;;;;;;25.52;18.50;;;;;;;10.93;100.00;163421.78;4991610;28;20026;-57
2022/05/17 01:56:28;;;;;;;21.17;17.90;;;;;;;11.08;100.00;163460.97;4989623;28;20806;-57
2022/05/17 01:58:53;;;;;;;21.73;16.27;;;;;;;11.13;100.00;163474.44;4991072;28;20409;-57
2022/05/17 02:01:19;;;;;;;30.02;15.50;;;;;;;11.10;100.00;163466.31;4990007;28;20039;-57
2022/05/17 02:03:44;;;;;;;24.85;16.02;;;;;;;11.12;100.00;163471.75;4990709;28;20556;-57
2022/05/17 02:06:10;;;;;;;21.20;17.15;;;;;;;11.18;100.00;163486.59;4988355;28;20042;-57
2022/05/17 02:08:35;;;;;;;23.45;17.20;;;;;;;11.27;100.00;163510.94;4990826;28;20025;-57
2022/05/17 02:11:01;;;;;;;29.77;17.63;;;;;;;11.31;100.00;163521.72;4989583;28;20386;-57
2022/05/17 02:13:26;;;;;;;25.58;17.20;;;;;;;11.34;100.00;163529.84;4989931;28;20033;-57
2022/05/17 02:15:52;;;;;;;22.90;15.88;;;;;;;11.35;100.00;163532.53;4989684;28;20067;-57
2022/05/17 02:18:17;;;;;;;24.00;16.58;;;;;;;11.33;100.00;163527.13;4991270;28;20556;-57
2022/05/17 02:20:42;;;;;;;22.05;17.02;;;;;;;11.34;100.00;163529.84;4973166;28;20093;-57
2022/05/17 02:23:08;;;;;;;19.15;13.73;;;;;;;11.32;100.00;163524.41;4971998;28;20027;-57
2022/05/17 02:25:35;;;;;;;27.48;16.92;;;;;;;11.09;100.00;163465.00;4969862;28;20418;-57
2022/05/17 02:28:00;;;;;;;26.10;15.98;;;;;;;11.24;100.00;163502.81;4971537;28;20019;-58
2022/05/17 02:30:25;;;;;;;18.98;16.63;;;;;;;11.06;100.00;163456.88;4970473;28;20027;-57
2022/05/17 02:32:51;;;;;;;25.55;16.63;;;;;;;11.23;100.00;163500.09;4971497;28;20450;-57
2022/05/17 02:35:16;;;;;;;27.83;16.77;;;;;;;11.27;100.00;163510.94;4973145;28;20026;-56
2022/05/17 02:37:41;;;;;;;24.45;15.25;;;;;;;11.24;100.00;163504.13;4990878;28;20026;-57
2022/05/17 02:40:08;;;;;;;19.70;14.73;;;;;;;11.21;100.00;163494.69;4991112;28;20029;-57
2022/05/17 02:42:34;;;;;;;22.88;15.02;;;;;;;11.21;100.00;163494.69;4990019;28;20105;-56
2022/05/17 02:44:59;;;;;;;29.08;16.05;;;;;;;11.23;100.00;163500.09;4994626;28;20026;-57
2022/05/17 02:47:24;;;;;;;25.75;14.80;;;;;;;11.27;100.00;163510.94;4992905;28;20166;-57
2022/05/17 02:49:50;;;;;;;18.88;16.92;;;;;;;11.32;100.00;163524.41;4994046;28;20508;-57
2022/05/17 02:52:15;;;;;;;18.40;15.20;;;;;;;11.37;100.00;163537.91;4992934;28;20461;-57
2022/05/17 02:54:41;;;;;;;24.35;16.05;;;;;;;11.37;100.00;163537.91;4981138;28;20030;-57
2022/05/17 02:57:07;;;;;;;19.00;14.82;;;;;;;11.37;100.00;163537.91;4972928;28;20043;-56
2022/05/17 02:59:32;;;;;;;36.38;18.58;;;;;;;11.38;100.00;163539.28;4974568;28;20030;-57
2022/05/17 03:01:59;;;;;;;22.10;15.43;;;;;;;11.39;100.00;163542.00;4973363;28;20043;-57
2022/05/17 03:04:26;;;;;;;22.77;17.42;;;;;;;11.39;100.00;163543.31;4974402;28;20100;-57
2022/05/17 03:06:51;;;;;;;26.48;16.08;;;;;;;11.39;100.00;163543.31;4972813;28;20050;-56
2022/05/17 03:09:17;;;;;;;22.67;16.75;;;;;;;11.41;100.00;163548.75;4985937;28;20081;-57
2022/05/17 03:11:43;;;;;;;21.55;16.38;;;;;;;11.45;100.00;163556.81;4991941;28;20080;-56
2022/05/17 03:14:10;;;;;;;19.55;16.85;;;;;;;11.46;100.00;163560.91;4985284;28;20031;-57
2022/05/17 03:16:35;;;;;;;21.40;17.25;;;;;;;11.47;100.00;163563.56;4972836;28;20086;-58
2022/05/17 03:19:02;;;;;;;20.80;17.58;;;;;;;11.49;100.00;163567.63;4974209;28;20031;-57
2022/05/17 03:21:27;;;;;;;20.75;16.30;;;;;;;11.52;100.00;163575.72;4972894;28;20042;-56
2022/05/17 03:23:53;;;;;;;22.88;16.63;;;;;;;11.54;100.00;163581.13;4974189;28;20038;-57
2022/05/17 03:26:19;;;;;;;22.45;15.73;;;;;;;11.59;100.00;163594.63;4972503;28;20046;-57
2022/05/17 03:28:45;;;;;;;28.00;18.00;;;;;;;11.63;100.00;163605.47;4974147;28;20046;-57
2022/05/17 03:31:10;;;;;;;29.02;18.42;;;;;;;11.65;100.00;163609.50;4972821;28;20047;-57
2022/05/17 03:33:37;;;;;;;28.45;17.40;;;;;;;11.52;100.00;163577.09;4973605;28;20023;-57
2022/05/17 03:36:03;;;;;;;31.67;17.20;;;;;;;11.68;100.00;163617.63;4979300;28;20046;-57
2022/05/17 03:38:29;;;;;;;17.38;15.32;;;;;;;11.65;100.00;163610.88;4993529;28;20033;-57
2022/05/17 03:40:54;;;;;;;27.42;18.05;;;;;;;11.63;100.00;163605.47;4991364;28;20038;-57
2022/05/17 03:43:20;;;;;;;31.58;16.05;;;;;;;11.61;100.00;163600.03;4993482;28;20482;-57
2022/05/17 03:45:45;;;;;;;27.73;15.40;;;;;;;11.58;100.00;163593.28;4991629;28;20057;-58
2022/05/17 03:48:11;;;;;;;22.08;17.48;;;;;;;11.40;100.00;163546.03;4993076;28;20149;-57
2022/05/17 03:50:37;;;;;;;23.83;16.15;;;;;;;11.51;100.00;163573.00;4990035;28;20112;-57
2022/05/17 03:53:03;;;;;;;23.15;16.05;;;;;;;11.46;100.00;163560.91;4992948;28;20076;-57
2022/05/17 03:55:28;;;;;;;20.48;16.90;;;;;;;11.45;100.00;163558.19;4991568;28;20022;-57
2022/05/17 03:57:53;;;;;;;25.00;17.30;;;;;;;11.40;100.00;163546.03;4992956;28;20023;-58
2022/05/17 04:00:19;;;;;;;23.58;17.80;;;;;;;11.37;100.00;163537.91;4989833;28;20026;-58
2022/05/17 04:02:44;;;;;;;26.58;18.77;;;;;;;11.21;100.00;163494.69;4992344;28;20032;-58
2022/05/17 04:05:11;;;;;;;34.40;20.20;;;;;;;11.14;100.00;163475.78;4992808;28;20054;-58
2022/05/17 04:07:36;;;;;;;28.83;17.48;;;;;;;11.33;100.00;163527.13;4991466;28;20030;-58
2022/05/17 04:10:03;;;;;;;27.20;17.27;;;;;;;11.33;100.00;163527.13;4992759;28;20034;-58
2022/05/17 04:12:29;;;;;;;27.98;17.88;;;;;;;11.32;100.00;163524.41;4990768;28;20557;-58
2022/05/17 04:14:54;;;;;;;24.77;19.48;;;;;;;11.29;100.00;163514.97;4991859;28;20034;-57
2022/05/17 04:17:19;;;;;;;26.65;17.00;;;;;;;11.28;100.00;163513.63;4990450;28;20038;-57
2022/05/17 04:19:45;;;;;;;32.70;19.45;;;;;;;11.34;100.00;163529.84;4990245;28;20387;-57
2022/05/17 04:22:11;;;;;;;25.20;18.23;;;;;;;11.26;100.00;163508.22;4980367;28;20049;-57
2022/05/17 04:24:38;;;;;;;25.10;18.90;;;;;;;11.46;100.00;163560.91;4990844;28;20030;-57
2022/05/17 04:27:04;;;;;;;29.60;19.15;;;;;;;11.39;100.00;163543.31;4991115;28;20038;-57
2022/05/17 04:29:29;;;;;;;28.20;19.45;;;;;;;11.62;100.00;163601.38;4992726;28;20033;-57
2022/05/17 04:31:54;;;;;;;22.95;17.80;;;;;;;11.68;100.00;163618.94;4990755;28;20038;-57
2022/05/17 04:34:20;;;;;;;22.45;16.70;;;;;;;11.75;100.00;163637.84;4991106;28;20030;-57
2022/05/17 04:36:46;;;;;;;23.92;18.30;;;;;;;11.81;100.00;163652.72;4989995;28;20042;-57
2022/05/17 04:39:11;;;;;;;24.23;19.33;;;;;;;11.87;100.00;163667.59;4991793;28;20037;-57
2022/05/17 04:41:37;;;;;;;26.13;19.13;;;;;;;12.01;100.00;163704.09;4990239;28;20042;-57
2022/05/17 04:44:02;;;;;;;24.00;17.83;;;;;;;12.13;100.00;163735.16;4988218;28;20026;-57
2022/05/17 04:46:28;;;;;;;24.13;18.23;;;;;;;12.26;100.00;163770.28;4990064;28;20128;-57
2022/05/17 04:48:53;;;;;;;27.50;18.27;;;;;;;12.29;100.00;163778.41;4992057;28;20034;-57
2022/05/17 04:51:19;;;;;;;22.10;16.98;;;;;;;12.33;100.00;163789.22;4990701;28;20497;-57
2022/05/17 04:53:44;;;;;;;25.73;18.08;;;;;;;12.77;100.00;163902.75;4990617;28;20363;-57
2022/05/17 04:56:10;;;;;;;19.13;15.75;;;;;;;13.00;100.00;163964.91;4990619;28;20039;-57
2022/05/17 04:58:36;;;;;;;22.65;15.05;;;;;;;13.21;100.00;164019.03;4991917;28;20030;-57
2022/05/17 05:01:02;;;;;;;31.48;18.00;;;;;;;13.43;100.00;164075.84;4990632;28;20120;-57
2022/05/17 05:03:29;;;;;;;20.80;15.07;;;;;;;13.44;100.00;164078.56;4991472;28;20531;-57
2022/05/17 05:05:54;;;;;;;23.55;14.52;;;;;;;13.76;100.00;164162.38;4989381;28;20092;-57
2022/05/17 05:08:19;;;;;;;19.88;14.32;;;;;;;13.93;100.00;164207.00;4991950;28;20434;-57
2022/05/17 05:10:45;;;;;;;22.88;15.32;;;;;;;14.03;100.00;164232.72;4990083;28;20038;-57
2022/05/17 05:13:16;;;;;;;28.05;14.35;;;;;;;14.24;100.00;164288.16;4992017;28;20018;-56
2022/05/17 05:15:41;;;;;;;22.60;13.80;;;;;;;14.37;100.00;164323.31;4990118;28;20042;-56
2022/05/17 05:18:07;;;;;;;24.30;14.18;;;;;;;14.47;100.00;164347.69;4991416;28;20022;-56
2022/05/17 05:20:32;;;;;;;25.42;14.68;;;;;;;14.52;100.00;164362.59;4990289;28;20179;-57
2022/05/17 05:22:58;;;;;;;26.75;13.93;;;;;;;14.51;100.00;164359.88;4991774;28;20122;-56
2022/05/17 05:25:23;;;;;;;20.02;14.35;;;;;;;14.50;100.00;164355.81;4990036;28;20026;-56
2022/05/17 05:27:49;;;;;;;27.27;16.00;;;;;;;14.50;100.00;164357.16;4991431;28;20410;-56
2022/05/17 05:30:16;;;;;;;24.92;15.20;;;;;;;14.49;100.00;164353.13;4990165;28;20022;-56
2022/05/17 05:32:41;;;;;;;16.65;12.35;;;;;;;14.52;100.00;164362.59;4991288;28;20026;-56
2022/05/17 05:35:07;;;;;;;23.83;14.98;;;;;;;14.58;100.00;164378.81;4991799;28;20487;-56
2022/05/17 05:37:33;;;;;;;23.25;13.27;;;;;;;14.66;100.00;164397.81;4989728;28;20066;-57
2022/05/17 05:39:58;;;;;;;26.33;14.25;;;;;;;14.72;100.00;164415.41;4991293;28;20023;-56
2022/05/17 05:42:24;;;;;;;26.70;15.93;;;;;;;14.77;100.00;164426.22;4990248;28;20046;-56
2022/05/17 05:44:50;;;;;;;17.63;12.85;;;;;;;14.88;100.00;164457.34;4991435;28;20523;-56
2022/05/17 05:47:15;;;;;;;23.67;14.93;;;;;;;14.94;100.00;164470.88;4989772;28;20093;-56
2022/05/17 05:49:40;;;;;;;17.55;12.98;;;;;;;14.97;100.00;164479.00;4991413;28;20077;-56
2022/05/17 05:52:06;;;;;;;21.48;12.27;;;;;;;14.91;100.00;164465.50;4989792;28;20045;-56
2022/05/17 05:54:31;;;;;;;19.77;11.43;;;;;;;15.12;100.00;164518.22;4991079;28;20022;-56
2022/05/17 05:57:00;;;;;;;23.05;15.15;;;;;;;15.17;100.00;164533.13;4989798;28;20030;-56
2022/05/17 05:59:28;;;;;;;27.63;14.43;;;;;;;15.18;100.00;164535.84;4991368;28;20057;-57
2022/05/17 06:01:54;;;;;;;18.47;13.30;;;;;;;15.27;100.00;164558.84;4989456;28;20038;-55
2022/05/17 06:04:19;;;;;;;20.73;11.82;;;;;;;15.41;100.00;164595.41;4991110;28;20046;-55
2022/05/17 06:06:45;;;;;;;20.58;13.00;;;;;;;15.52;100.00;164625.22;4988908;28;20521;-55
2022/05/17 06:09:10;;;;;;;16.77;12.35;;;;;;;15.62;100.00;164649.53;4991081;28;20014;-55
2022/05/17 06:11:35;;;;;;;23.08;13.88;;;;;;;15.74;100.00;164680.69;4989810;28;20410;-55
2022/05/17 06:14:01;;;;;;;17.80;11.32;;;;;;;15.82;100.00;164703.69;4991378;28;20038;-54
2022/05/17 06:16:26;;;;;;;23.42;12.95;;;;;;;15.95;100.00;164737.59;4989601;28;20045;-55
2022/05/17 06:18:51;;;;;;;20.70;12.73;;;;;;;16.04;100.00;164760.66;4993681;28;20027;-55
2022/05/17 06:21:17;;;;;;;17.00;11.55;;;;;;;16.16;100.00;164793.16;4992143;28;20042;-55
2022/05/17 06:23:42;;;;;;;18.65;12.75;;;;;;;16.26;100.00;164817.53;4994037;28;20085;-55
2022/05/17 06:26:07;;;;;;;24.02;14.05;;;;;;;16.34;100.00;164840.53;4993463;28;20573;-55
2022/05/17 06:28:33;;;;;;;19.02;11.98;;;;;;;16.44;100.00;164864.94;4994497;28;20027;-55
2022/05/17 06:30:58;;;;;;;29.17;12.73;;;;;;;16.50;100.00;164882.53;4993173;28;20042;-55
2022/05/17 06:33:23;;;;;;;20.50;11.07;;;;;;;16.58;100.00;164902.88;4994841;28;20362;-55
2022/05/17 06:35:50;;;;;;;19.15;14.07;;;;;;;16.58;100.00;164901.47;4993241;28;20039;-55
2022/05/17 06:38:16;;;;;;;24.65;13.15;;;;;;;16.59;100.00;164904.19;4994251;28;20026;-55
2022/05/17 06:40:41;;;;;;;19.92;12.52;;;;;;;16.77;100.00;164953.00;4992999;28;20030;-55
2022/05/17 06:43:07;;;;;;;15.70;11.95;;;;;;;16.90;100.00;164985.50;4994571;28;20030;-55
2022/05/17 06:45:33;;;;;;;20.52;12.02;;;;;;;16.86;100.00;164976.00;4992685;28;20069;-54
2022/05/17 06:48:00;;;;;;;21.75;13.13;;;;;;;16.99;100.00;165009.94;4994191;28;20018;-54
2022/05/17 06:50:26;;;;;;;16.50;12.65;;;;;;;16.97;100.00;165004.50;4993051;28;20121;-54
2022/05/17 06:52:52;;;;;;;16.17;13.00;;;;;;;16.90;100.00;164985.50;4993947;28;20053;-55
2022/05/17 06:55:17;;;;;;;16.52;13.50;;;;;;;16.89;100.00;164982.78;4992975;28;20022;-54
2022/05/17 06:57:43;;;;;;;20.45;12.55;;;;;;;16.83;100.00;164966.53;4994164;28;20022;-54
2022/05/17 07:00:12;;;;;;;22.33;13.20;;;;;;;16.89;100.00;164984.16;4994051;28;20390;-54
2022/05/17 07:02:38;;;;;;;16.35;11.27;;;;;;;16.98;100.00;165005.91;4992538;28;20051;-54
2022/05/17 07:05:04;;;;;;;22.55;13.18;;;;;;;16.94;100.00;164996.41;4994027;28;20529;-54
2022/05/17 07:07:30;;;;;;;18.92;11.57;;;;;;;17.16;100.00;165054.66;4992281;28;20045;-54
2022/05/17 07:15:23;;;;;;;17.90;9.45;;;;;;;17.41;100.00;165121.03;4985153;28;20034;-54
2022/05/17 07:17:49;;;;;;;12.55;9.05;;;;;;;17.40;100.00;165118.31;4981815;28;20026;-54
2022/05/17 07:20:15;;;;;;;19.08;8.43;;;;;;;17.37;100.00;165110.22;4992237;28;20082;-54
2022/05/17 07:22:43;;;;;;;12.50;7.45;;;;;;;17.13;100.00;165046.50;4992927;28;20632;-54
2022/05/17 07:25:09;;;;;;;14.73;7.38;;;;;;;17.10;100.00;165039.72;4993599;28;20052;-55
2022/05/17 07:27:35;;;;;;;15.45;8.40;;;;;;;17.13;100.00;165047.88;4991235;28;20039;-54
2022/05/17 07:30:01;;;;;;;11.18;7.95;;;;;;;17.23;100.00;165072.28;4993335;28;20053;-55
2022/05/17 07:32:27;;;;;;;15.65;9.13;;;;;;;17.25;100.00;165079.06;4972886;28;20470;-54
2022/05/17 07:34:52;;;;;;;13.77;7.35;;;;;;;17.37;100.00;165110.22;4990033;28;20030;-54
2022/05/17 07:37:17;;;;;;;14.57;8.55;;;;;;;17.49;100.00;165140.03;4991758;28;20556;-55
2022/05/17 07:39:43;;;;;;;16.85;8.07;;;;;;;17.75;100.00;165209.16;4993416;28;20029;-54
2022/05/17 07:42:09;;;;;;;15.27;7.32;;;;;;;17.85;100.00;165234.88;4992506;28;20069;-55
2022/05/17 07:44:35;;;;;;;10.07;7.10;;;;;;;17.99;100.00;165272.91;4992483;28;20049;-55
2022/05/17 07:47:01;;;;;;;13.90;6.57;;;;;;;18.08;100.00;165297.31;4991802;28;20490;-54
2022/05/17 07:49:27;;;;;;;10.45;5.65;;;;;;;18.09;100.00;165298.69;4993422;28;20038;-55
2022/05/17 07:51:52;;;;;;;11.77;6.60;;;;;;;18.21;100.00;165329.84;4991382;28;20047;-55
2022/05/17 07:54:18;;;;;;;9.63;5.75;;;;;;;17.94;100.00;165259.31;4993683;28;20022;-55
2022/05/17 07:56:43;;;;;;;14.02;5.78;;;;;;;17.87;100.00;165240.31;4991620;28;20046;-55
2022/05/17 07:59:09;;;;;;;17.63;7.00;;;;;;;18.06;100.00;165291.88;4992744;28;20030;-54
2022/05/17 08:01:34;;;;;;;10.40;5.90;;;;;;;18.26;100.00;165343.44;4991560;28;20046;-54
2022/05/17 08:04:00;;;;;;;14.85;5.30;;;;;;;18.28;100.00;165348.81;4993094;28;20104;-55
2022/05/17 08:06:25;;;;;;;10.88;5.35;;;;;;;18.24;100.00;165339.31;4991217;28;20038;-55
2022/05/17 08:08:50;;;;;;;10.00;5.43;;;;;;;18.15;100.00;165314.97;4992921;28;20792;-57
2022/05/17 08:11:16;;;;;;;13.07;4.47;;;;;;;18.29;100.00;165351.53;4988528;28;20129;-55
2022/05/17 08:13:41;;;;;;;9.45;5.68;;;;;;;18.23;100.00;165335.28;4991720;28;20084;-56
2022/05/17 08:16:07;;;;;;;8.10;4.93;;;;;;;18.17;100.00;165319.00;4991294;28;20520;-55
2022/05/17 08:18:34;;;;;;;8.38;4.13;;;;;;;18.08;100.00;165297.31;4992616;28;20030;-56
2022/05/17 08:20:59;;;;;;;11.25;4.63;;;;;;;17.83;100.00;165229.50;4991280;28;20049;-55
2022/05/17 08:23:25;;;;;;;9.30;4.72;;;;;;;17.67;100.00;165188.84;4992160;28;20034;-55
2022/05/17 08:28:34;;;;;;;15.93;5.82;;;;;;;17.57;100.00;165163.03;4992121;28;20038;-55
2022/05/17 08:30:59;;;;;;;8.02;5.72;;;;;;;17.49;100.00;165141.41;4991298;28;20433;-55
2022/05/17 08:33:26;;;;;;;12.77;5.20;;;;;;;17.48;100.00;165137.28;4992715;28;20030;-55
2022/05/17 08:35:57;;;;;;;7.90;4.75;;;;;;;17.44;100.00;165129.19;4990479;28;20074;-55
2022/05/17 08:38:42;;;;;;;13.35;7.45;;;;;;;17.50;100.00;165144.06;4992303;28;20065;-55
2022/05/17 08:41:39;;;;;;;12.65;6.50;;;;;;;17.35;100.00;165104.78;4991201;28;20034;-55
2022/05/17 08:44:09;;;;;;;10.07;6.00;;;;;;;17.36;100.00;165107.50;4992185;28;20088;-55
2022/05/17 08:47:12;;;;;;;8.40;4.45;;;;;;;17.41;100.00;165121.03;4990518;28;20035;-55
2022/05/17 08:49:44;;;;;;;10.73;5.18;;;;;;;17.58;100.00;165164.44;4992176;28;20109;-55
2022/05/17 08:52:16;;;;;;;15.82;5.22;;;;;;;17.52;100.00;165148.16;4990342;28;20112;-55
2022/05/17 08:54:50;;;;;;;12.18;5.10;;;;;;;17.54;100.00;165154.94;4992128;28;20026;-55
2022/05/17 08:57:38;;;;;;;10.60;5.10;;;;;;;17.65;100.00;165183.41;4990867;28;20045;-55
2022/05/17 09:00:29;;;;;;;10.73;5.55;;;;;;;17.60;100.00;165169.84;4989385;28;20161;-55
2022/05/17 09:03:20;;;;;;;9.48;5.22;;;;;;;17.60;100.00;165169.84;4978790;28;20047;-55
2022/05/17 09:06:09;;;;;;;12.57;6.50;;;;;;;17.85;100.00;165234.88;4981859;28;20100;-55
2022/05/17 09:08:56;;;;;;;9.82;5.43;;;;;;;17.94;100.00;165259.31;4991602;28;20121;-55
2022/05/17 09:11:38;;;;;;;16.90;6.10;;;;;;;18.04;100.00;165286.50;4990620;28;20545;-54
2022/05/17 09:14:15;;;;;;;16.83;6.80;;;;;;;18.34;100.00;165365.13;4991692;28;20022;-54
2022/05/17 09:16:45;;;;;;;13.07;5.07;;;;;;;18.32;100.00;165359.69;4990046;28;20042;-54
2022/05/17 09:19:11;;;;;;;17.33;5.78;;;;;;;18.62;100.00;165436.94;4991971;28;20034;-54
2022/05/17 09:21:40;;;;;;;13.05;4.75;;;;;;;18.81;100.00;165487.13;4989867;28;20497;-55
2022/05/17 09:24:12;;;;;;;8.95;4.47;;;;;;;19.06;100.00;165552.31;4991964;28;20034;-55
2022/05/17 09:26:38;;;;;;;9.27;4.90;;;;;;;19.22;100.00;165595.72;4990194;28;20042;-56
2022/05/17 09:29:22;;;;;;;8.45;3.58;;;;;;;19.29;100.00;165614.72;4991322;28;20023;-55
2022/05/17 09:31:53;;;;;;;18.38;6.00;;;;;;;19.36;100.00;165631.00;4990021;28;20043;-55
2022/05/17 09:34:37;;;;;;;9.13;4.57;;;;;;;19.33;100.00;165625.56;4991839;28;20034;-55
2022/05/17 09:37:07;;;;;;;25.13;5.18;;;;;;;19.48;100.00;165663.53;4969728;28;20057;-55
2022/05/17 09:39:33;;;;;;;11.23;4.40;;;;;;;19.61;100.00;165698.84;4989071;28;20081;-55
2022/05/17 09:42:02;;;;;;;14.98;4.25;;;;;;;19.43;100.00;165651.38;4988850;28;20681;-55
2022/05/17 09:44:30;;;;;;;10.60;3.35;;;;;;;19.26;100.00;165606.56;4990787;28;20022;-55
2022/05/17 09:46:59;;;;;;;23.08;4.38;;;;;;;19.08;100.00;165557.75;4989879;28;20519;-55
2022/05/17 09:52:38;;;;;;;7.45;3.08;;;;;;;19.15;100.00;165576.75;4992410;28;20074;-55
2022/05/17 09:55:23;;;;;;;11.63;3.60;;;;;;;19.33;100.00;165625.56;4995565;28;20657;-55
2022/05/17 09:57:53;;;;;;;16.65;5.45;;;;;;;19.34;100.00;165628.28;4993603;28;20035;-55
2022/05/17 10:00:26;;;;;;;15.20;3.30;;;;;;;19.36;100.00;165631.00;4993958;28;20034;-55
2022/05/17 10:03:00;;;;;;;9.18;3.95;;;;;;;19.33;100.00;165624.22;4995226;28;20034;-55
2022/05/17 10:05:29;;;;;;;9.63;3.88;;;;;;;19.33;100.00;165625.56;4993602;28;20498;-55
2022/05/17 10:07:56;;;;;;;7.53;3.45;;;;;;;19.34;100.00;165626.94;4994722;28;20068;-55
2022/05/17 10:10:26;;;;;;;11.77;3.58;;;;;;;19.11;100.00;165565.84;4987618;28;20042;-55
2022/05/17 10:12:56;;;;;;;12.02;3.88;;;;;;;18.98;100.00;165533.31;4975240;28;20579;-55
2022/05/17 10:15:24;;;;;;;9.15;3.72;;;;;;;18.55;100.00;165419.34;4974181;28;20054;-55
2022/05/17 10:17:55;;;;;;;7.32;3.30;;;;;;;18.55;100.00;165420.69;4979965;28;20065;-55
2022/05/17 10:20:27;;;;;;;10.85;4.22;;;;;;;18.49;100.00;165404.44;4972962;28;20019;-55
2022/05/17 10:23:15;;;;;;;11.73;4.57;;;;;;;18.43;100.00;165386.81;4974357;28;20598;-56
2022/05/17 10:25:51;;;;;;;9.48;4.68;;;;;;;18.35;100.00;165367.84;4973597;28;20101;-55
2022/05/17 10:28:27;;;;;;;7.28;3.20;;;;;;;18.32;100.00;165359.69;4990672;28;20035;-55
2022/05/17 10:30:57;;;;;;;10.20;3.08;;;;;;;18.44;100.00;165389.50;4992813;28;20066;-55
2022/05/17 10:33:57;;;;;;;5.57;2.75;;;;;;;18.49;100.00;165403.09;4993336;28;20050;-55
2022/05/17 10:36:34;;;;;;;8.00;3.33;;;;;;;18.68;100.00;165453.28;4991353;28;20308;-55
2022/05/17 10:39:38;;;;;;;9.35;3.63;;;;;;;18.82;100.00;165489.84;4992663;28;20041;-55
2022/05/17 10:42:04;;;;;;;10.77;3.63;;;;;;;19.16;100.00;165580.78;4987142;28;20046;-55
2022/05/17 10:44:53;;;;;;;12.68;4.57;;;;;;;19.54;100.00;165678.47;4994115;28;20022;-55
2022/05/17 10:47:48;;;;;;;12.50;3.05;;;;;;;19.74;100.00;165731.41;4991543;28;20049;-55
2022/05/17 10:50:39;;;;;;;8.95;3.00;;;;;;;20.25;100.00;165865.81;4991831;28;20043;-55
2022/05/17 10:53:10;;;;;;;8.35;3.50;;;;;;;20.46;100.00;165921.44;4994078;28;20022;-55
2022/05/17 10:56:10;;;;;;;9.10;3.08;;;;;;;20.49;100.00;165929.63;4992384;28;20042;-55
2022/05/17 10:59:02;;;;;;;12.48;3.85;;;;;;;20.71;100.00;165986.63;4993271;28;20402;-55
2022/05/17 11:01:49;;;;;;;12.60;4.47;;;;;;;20.89;100.00;166035.53;4992822;28;20046;-55
2022/05/17 11:04:32;;;;;;;6.43;3.25;;;;;;;21.15;100.00;166103.44;4992232;28;20046;-55
2022/05/17 11:07:25;;;;;;;13.52;3.78;;;;;;;21.19;100.00;166114.28;4992463;28;20121;-55
2022/05/17 11:09:59;;;;;;;7.45;3.28;;;;;;;21.23;100.00;166125.19;4993517;28;20034;-55
2022/05/17 11:12:30;;;;;;;6.43;3.17;;;;;;;20.96;100.00;166053.22;4990647;28;20046;-55
2022/05/17 11:15:02;;;;;;;8.65;4.57;;;;;;;20.83;100.00;166019.25;4993471;28;20069;-55
2022/05/17 11:17:40;;;;;;;15.13;4.55;;;;;;;20.78;100.00;166005.69;4992161;28;20409;-55
2022/05/17 11:20:16;;;;;;;13.43;5.30;;;;;;;20.60;100.00;165959.47;4992223;28;20052;-55
2022/05/17 11:23:03;;;;;;;12.18;4.28;;;;;;;20.50;100.00;165932.34;4992110;28;20050;-55
2022/05/17 11:25:57;;;;;;;11.05;4.10;;;;;;;20.36;100.00;165894.34;4992103;28;20022;-55
2022/05/17 11:28:51;;;;;;;10.80;3.70;;;;;;;20.12;100.00;165831.88;4993444;28;20037;-55